PWSweather.com
Personal Weather Stations
Station Observations
719732
Ponferrada, PonferradaES 24411

PonferradaPonferradaES 24411

Lat: 42.5728, Lon: -6.6425

Elevation: 1676

Station Type: PCE-FWS 20 con garita Ambient Weather SRS100LX

Latest ConditionsUpdated 9:55:03 AM GMT+01:01 Thursday, Dec 12, 2019
Currently Today's Max Today's Min Today's Average
Temperature 46.8°F8.2°C 46.8°F8.2°C 44.4°F6.9°C 45.8°F7.7°C
Dew Point 43.4°F6.3°C 43.8°F6.6°C 40.4°F4.7°C 42.1°F5.6°C
Winds 5.4 mph WNW8.7 kmh WNW 11.4 mph -18.3 kmh - - 4.9 mph 7.9 kmh
Wind Gusts 13.0 mph20.9 kmh 17.4 mph28.0 kmh - -
Humidity 88% 91% 85% 87%
Pressure 30.71 in1040.0 mb 30.91 in1046.7 mb 30.70 in1039.6 mb -
Precipitation - 0.09 in2.3 mm - -
Hour Temp Dew Point Humidity Winds Wind Gusts Pressure Precip Precip Rate Daily Precip Total
09:55 AM 46.8°F8.2°C 43.4°F6.3°C 88% 5.4 mph WNW8.7 kmh WNW 13.0 mph20.9 kmh 30.71 in1040.0 mb 0.02 in0.5 mm 0.12 in3.0 mm 0.09 in2.3 mm
09:50 AM 46.8°F8.2°C 43.7°F6.5°C 89% 6.0 mph WNW9.7 kmh WNW 13.0 mph20.9 kmh 30.71 in1040.0 mb 0.01 in0.3 mm 0.00 in0.0 mm 0.08 in2.0 mm
09:45 AM 46.8°F8.2°C 43.7°F6.5°C 89% 3.1 mph W5.0 kmh W 12.1 mph19.5 kmh 30.70 in1039.6 mb 0.02 in0.5 mm 0.00 in0.0 mm 0.08 in2.0 mm
09:40 AM 46.6°F8.1°C 43.8°F6.6°C 90% 6.0 mph WSW9.7 kmh WSW 17.4 mph28.0 kmh 30.71 in1040.0 mb 0.02 in0.5 mm 0.00 in0.0 mm 0.08 in2.0 mm
09:35 AM 46.4°F8.0°C 43.6°F6.4°C 90% 7.6 mph WSW12.2 kmh WSW 17.4 mph28.0 kmh 30.71 in1040.0 mb 0.02 in0.5 mm 0.00 in0.0 mm 0.08 in2.0 mm
09:30 AM 46.2°F7.9°C 43.7°F6.5°C 91% 5.4 mph W8.7 kmh W 12.1 mph19.5 kmh 30.71 in1040.0 mb 0.04 in1.0 mm 0.00 in0.0 mm 0.08 in2.0 mm
09:25 AM 45.7°F7.6°C 43.2°F6.2°C 91% 6.0 mph W9.7 kmh W 11.4 mph18.3 kmh 30.72 in1040.3 mb 0.04 in1.0 mm 0.00 in0.0 mm 0.08 in2.0 mm
09:20 AM 45.5°F7.5°C 43.0°F6.1°C 91% 3.1 mph W5.0 kmh W 7.6 mph12.2 kmh 30.72 in1040.3 mb 0.04 in1.0 mm 0.00 in0.0 mm 0.08 in2.0 mm
09:15 AM 45.5°F7.5°C 43.0°F6.1°C 91% 3.1 mph W5.0 kmh W 7.6 mph12.2 kmh 30.72 in1040.3 mb 0.04 in1.0 mm 0.00 in0.0 mm 0.08 in2.0 mm
09:10 AM 45.5°F7.5°C 42.7°F5.9°C 90% 3.1 mph W5.0 kmh W 4.5 mph7.2 kmh 30.72 in1040.3 mb 0.04 in1.0 mm 0.00 in0.0 mm 0.08 in2.0 mm
09:05 AM 45.7°F7.6°C 42.9°F6.1°C 90% 1.6 mph W2.6 kmh W 6.9 mph11.1 kmh 30.73 in1040.6 mb 0.05 in1.3 mm 0.12 in3.0 mm 0.08 in2.0 mm
09:00 AM 45.7°F7.6°C 42.9°F6.1°C 90% 1.6 mph W2.6 kmh W 6.9 mph11.1 kmh 30.72 in1040.3 mb 0.04 in1.0 mm 0.00 in0.0 mm 0.07 in1.8 mm
08:55 AM 45.7°F7.6°C 42.6°F5.9°C 89% 3.8 mph W6.1 kmh W 6.9 mph11.1 kmh 30.73 in1040.6 mb 0.04 in1.0 mm 0.00 in0.0 mm 0.07 in1.8 mm
08:50 AM 45.7°F7.6°C 42.6°F5.9°C 89% 2.2 mph W3.5 kmh W 6.9 mph11.1 kmh 30.72 in1040.3 mb 0.04 in1.0 mm 0.24 in6.1 mm 0.07 in1.8 mm
08:45 AM 45.7°F7.6°C 42.6°F5.9°C 89% 3.1 mph W5.0 kmh W 9.2 mph14.8 kmh 30.72 in1040.3 mb 0.02 in0.5 mm 0.00 in0.0 mm 0.06 in1.5 mm
08:40 AM 45.5°F7.5°C 42.2°F5.7°C 88% 5.4 mph W8.7 kmh W 9.2 mph14.8 kmh 30.71 in1040.0 mb 0.02 in0.5 mm 0.00 in0.0 mm 0.06 in1.5 mm
08:35 AM 45.5°F7.5°C 42.2°F5.7°C 88% 1.6 mph WNW2.6 kmh WNW 4.5 mph7.2 kmh 30.72 in1040.3 mb 0.04 in1.0 mm 0.24 in6.1 mm 0.06 in1.5 mm
08:30 AM 45.7°F7.6°C 42.3°F5.7°C 88% 1.6 mph WNW2.6 kmh WNW 5.4 mph8.7 kmh 30.71 in1040.0 mb 0.02 in0.5 mm 0.00 in0.0 mm 0.05 in1.3 mm
08:25 AM 45.7°F7.6°C 42.3°F5.7°C 88% 2.2 mph WNW3.5 kmh WNW 6.9 mph11.1 kmh 30.72 in1040.3 mb 0.02 in0.5 mm 0.00 in0.0 mm 0.05 in1.3 mm
08:20 AM 45.9°F7.7°C 42.2°F5.7°C 87% 3.8 mph W6.1 kmh W 6.9 mph11.1 kmh 30.71 in1040.0 mb 0.02 in0.5 mm 0.00 in0.0 mm 0.05 in1.3 mm
08:15 AM 45.9°F7.7°C 42.2°F5.7°C 87% 2.2 mph W3.5 kmh W 7.6 mph12.2 kmh 30.71 in1040.0 mb 0.02 in0.5 mm 0.00 in0.0 mm 0.05 in1.3 mm
08:10 AM 45.9°F7.7°C 42.2°F5.7°C 87% 5.4 mph WSW8.7 kmh WSW 7.6 mph12.2 kmh 30.72 in1040.3 mb 0.02 in0.5 mm 0.12 in3.0 mm 0.05 in1.3 mm
08:05 AM 45.9°F7.7°C 42.2°F5.7°C 87% 3.8 mph W6.1 kmh W 7.6 mph12.2 kmh 30.72 in1040.3 mb 0.01 in0.3 mm 0.00 in0.0 mm 0.04 in1.0 mm
08:00 AM 45.9°F7.7°C 41.9°F5.5°C 86% 5.4 mph W8.7 kmh W 7.6 mph12.2 kmh 30.72 in1040.3 mb 0.01 in0.3 mm 0.00 in0.0 mm 0.04 in1.0 mm
07:55 AM 45.9°F7.7°C 41.9°F5.5°C 86% 2.2 mph W3.5 kmh W 7.6 mph12.2 kmh 30.73 in1040.6 mb 0.01 in0.3 mm 0.00 in0.0 mm 0.04 in1.0 mm
07:50 AM 46.0°F7.8°C 42.1°F5.6°C 86% 3.1 mph W5.0 kmh W 10.7 mph17.2 kmh 30.73 in1040.6 mb 0.02 in0.5 mm 0.00 in0.0 mm 0.04 in1.0 mm
07:45 AM 46.2°F7.9°C 42.0°F5.6°C 85% 3.8 mph WSW6.1 kmh WSW 13.0 mph20.9 kmh 30.73 in1040.6 mb 0.02 in0.5 mm 0.00 in0.0 mm 0.04 in1.0 mm
07:40 AM 46.2°F7.9°C 42.0°F5.6°C 85% 7.6 mph WSW12.2 kmh WSW 13.0 mph20.9 kmh 30.73 in1040.6 mb 0.02 in0.5 mm 0.12 in3.0 mm 0.04 in1.0 mm
07:35 AM 46.2°F7.9°C 42.0°F5.6°C 85% 6.0 mph WSW9.7 kmh WSW 15.2 mph24.5 kmh 30.73 in1040.6 mb 0.01 in0.3 mm 0.00 in0.0 mm 0.02 in0.5 mm
07:30 AM 46.2°F7.9°C 42.0°F5.6°C 85% 6.0 mph WSW9.7 kmh WSW 15.2 mph24.5 kmh 30.73 in1040.6 mb 0.01 in0.3 mm 0.00 in0.0 mm 0.02 in0.5 mm
07:25 AM 46.2°F7.9°C 42.0°F5.6°C 85% 6.0 mph WSW9.7 kmh WSW 13.6 mph21.9 kmh 30.72 in1040.3 mb 0.01 in0.3 mm 0.00 in0.0 mm 0.02 in0.5 mm
07:20 AM 46.4°F8.0°C 42.1°F5.6°C 85% 6.9 mph SW11.1 kmh SW 16.8 mph27.0 kmh 30.72 in1040.3 mb 0.01 in0.3 mm 0.00 in0.0 mm 0.02 in0.5 mm
07:15 AM 46.4°F8.0°C 42.1°F5.6°C 85% 9.2 mph WSW14.8 kmh WSW 16.8 mph27.0 kmh 30.73 in1040.6 mb 0.01 in0.3 mm 0.00 in0.0 mm 0.02 in0.5 mm
07:10 AM 46.4°F8.0°C 42.1°F5.6°C 85% 6.9 mph WNW11.1 kmh WNW 13.6 mph21.9 kmh 30.73 in1040.6 mb 0.01 in0.3 mm 0.00 in0.0 mm 0.02 in0.5 mm
07:05 AM 46.4°F8.0°C 42.1°F5.6°C 85% 6.9 mph W11.1 kmh W 13.6 mph21.9 kmh 30.73 in1040.6 mb 0.01 in0.3 mm 0.00 in0.0 mm 0.02 in0.5 mm
07:00 AM 46.4°F8.0°C 42.1°F5.6°C 85% 6.9 mph WSW11.1 kmh WSW 13.0 mph20.9 kmh 30.74 in1041.0 mb 0.01 in0.3 mm 0.00 in0.0 mm 0.02 in0.5 mm
06:55 AM 46.6°F8.1°C 42.3°F5.7°C 85% 7.6 mph WSW12.2 kmh WSW 13.0 mph20.9 kmh 30.74 in1041.0 mb 0.01 in0.3 mm 0.12 in3.0 mm 0.02 in0.5 mm
06:50 AM 46.6°F8.1°C 42.3°F5.7°C 85% 8.3 mph WSW13.4 kmh WSW 13.0 mph20.9 kmh 30.74 in1041.0 mb 0.00 in0.0 mm 0.00 in0.0 mm 0.01 in0.3 mm
06:45 AM 46.6°F8.1°C 42.3°F5.7°C 85% 9.2 mph WSW14.8 kmh WSW 13.0 mph20.9 kmh 30.74 in1041.0 mb 0.00 in0.0 mm 0.00 in0.0 mm 0.01 in0.3 mm
06:40 AM 46.4°F8.0°C 42.1°F5.6°C 85% 6.9 mph W11.1 kmh W 15.9 mph25.6 kmh 30.74 in1041.0 mb 0.00 in0.0 mm 0.00 in0.0 mm 0.01 in0.3 mm
06:35 AM 46.4°F8.0°C 42.1°F5.6°C 85% 9.2 mph W14.8 kmh W 15.9 mph25.6 kmh 30.74 in1041.0 mb 0.00 in0.0 mm 0.00 in0.0 mm 0.01 in0.3 mm
06:30 AM 46.4°F8.0°C 42.4°F5.8°C 86% 7.6 mph WSW12.2 kmh WSW 16.8 mph27.0 kmh 30.75 in1041.3 mb 0.00 in0.0 mm 0.00 in0.0 mm 0.01 in0.3 mm
06:25 AM 46.4°F8.0°C 42.4°F5.8°C 86% 11.4 mph WSW18.3 kmh WSW 16.8 mph27.0 kmh 30.75 in1041.3 mb 0.00 in0.0 mm 0.00 in0.0 mm 0.01 in0.3 mm
06:20 AM 46.4°F8.0°C 42.4°F5.8°C 86% 6.0 mph SW9.7 kmh SW 13.6 mph21.9 kmh 30.75 in1041.3 mb 0.00 in0.0 mm 0.00 in0.0 mm 0.01 in0.3 mm
06:15 AM 46.4°F8.0°C 42.4°F5.8°C 86% 7.6 mph WSW12.2 kmh WSW 13.6 mph21.9 kmh 30.76 in1041.7 mb 0.00 in0.0 mm 0.00 in0.0 mm 0.01 in0.3 mm
06:10 AM 46.4°F8.0°C 42.4°F5.8°C 86% 9.2 mph SW14.8 kmh SW 13.6 mph21.9 kmh 30.76 in1041.7 mb 0.00 in0.0 mm 0.00 in0.0 mm 0.01 in0.3 mm
06:05 AM 46.4°F8.0°C 42.4°F5.8°C 86% 6.9 mph WSW11.1 kmh WSW 13.0 mph20.9 kmh 30.76 in1041.7 mb 0.00 in0.0 mm 0.00 in0.0 mm 0.01 in0.3 mm
06:00 AM 46.4°F8.0°C 42.4°F5.8°C 86% 6.9 mph W11.1 kmh W 13.0 mph20.9 kmh 30.77 in1042.0 mb 0.00 in0.0 mm 0.00 in0.0 mm 0.01 in0.3 mm
05:55 AM 46.2°F7.9°C 42.3°F5.7°C 86% 7.6 mph WSW12.2 kmh WSW 12.1 mph19.5 kmh 30.76 in1041.7 mb 0.00 in0.0 mm 0.00 in0.0 mm 0.01 in0.3 mm
05:50 AM 46.4°F8.0°C 42.4°F5.8°C 86% 6.9 mph WSW11.1 kmh WSW 13.0 mph20.9 kmh 30.76 in1041.7 mb 0.00 in0.0 mm 0.00 in0.0 mm 0.01 in0.3 mm
05:45 AM 46.4°F8.0°C 42.4°F5.8°C 86% 6.0 mph WSW9.7 kmh WSW 13.0 mph20.9 kmh 30.77 in1042.0 mb 0.00 in0.0 mm 0.00 in0.0 mm 0.01 in0.3 mm
05:40 AM 46.4°F8.0°C 42.4°F5.8°C 86% 7.6 mph W12.2 kmh W 13.0 mph20.9 kmh 30.77 in1042.0 mb 0.00 in0.0 mm 0.00 in0.0 mm 0.01 in0.3 mm
05:35 AM 46.4°F8.0°C 42.4°F5.8°C 86% 8.3 mph WSW13.4 kmh WSW 13.6 mph21.9 kmh 30.77 in1042.0 mb 0.00 in0.0 mm 0.00 in0.0 mm 0.01 in0.3 mm
05:30 AM 46.4°F8.0°C 42.4°F5.8°C 86% 9.2 mph WSW14.8 kmh WSW 13.6 mph21.9 kmh 30.78 in1042.3 mb 0.00 in0.0 mm 0.00 in0.0 mm 0.01 in0.3 mm
05:25 AM 46.4°F8.0°C 42.4°F5.8°C 86% 6.9 mph WSW11.1 kmh WSW 13.0 mph20.9 kmh 30.78 in1042.3 mb 0.00 in0.0 mm 0.00 in0.0 mm 0.01 in0.3 mm
05:20 AM 46.4°F8.0°C 42.4°F5.8°C 86% 8.3 mph WSW13.4 kmh WSW 12.1 mph19.5 kmh 30.78 in1042.3 mb 0.00 in0.0 mm 0.00 in0.0 mm 0.01 in0.3 mm
05:15 AM 46.4°F8.0°C 42.4°F5.8°C 86% 6.0 mph WSW9.7 kmh WSW 13.6 mph21.9 kmh 30.78 in1042.3 mb 0.00 in0.0 mm 0.00 in0.0 mm 0.01 in0.3 mm
05:10 AM 46.2°F7.9°C 42.3°F5.7°C 86% 6.0 mph W9.7 kmh W 13.6 mph21.9 kmh 30.78 in1042.3 mb 0.00 in0.0 mm 0.00 in0.0 mm 0.01 in0.3 mm
05:05 AM 46.2°F7.9°C 42.6°F5.9°C 87% 6.9 mph WNW11.1 kmh WNW 13.6 mph21.9 kmh 30.78 in1042.3 mb 0.00 in0.0 mm 0.00 in0.0 mm 0.01 in0.3 mm
05:00 AM 46.2°F7.9°C 42.6°F5.9°C 87% 5.4 mph W8.7 kmh W 13.6 mph21.9 kmh 30.78 in1042.3 mb 0.00 in0.0 mm 0.00 in0.0 mm 0.01 in0.3 mm
04:55 AM 46.2°F7.9°C 42.6°F5.9°C 87% 7.6 mph WSW12.2 kmh WSW 13.0 mph20.9 kmh 30.79 in1042.7 mb 0.00 in0.0 mm 0.00 in0.0 mm 0.01 in0.3 mm
04:50 AM 46.2°F7.9°C 42.6°F5.9°C 87% 6.9 mph W11.1 kmh W 15.2 mph24.5 kmh 30.79 in1042.7 mb 0.00 in0.0 mm 0.00 in0.0 mm 0.01 in0.3 mm
04:45 AM 46.2°F7.9°C 42.6°F5.9°C 87% 5.4 mph W8.7 kmh W 15.2 mph24.5 kmh 30.79 in1042.7 mb 0.00 in0.0 mm 0.00 in0.0 mm 0.01 in0.3 mm
04:40 AM 46.2°F7.9°C 42.6°F5.9°C 87% 9.8 mph W15.8 kmh W 13.0 mph20.9 kmh 30.79 in1042.7 mb 0.00 in0.0 mm 0.00 in0.0 mm 0.01 in0.3 mm
04:35 AM 46.2°F7.9°C 42.6°F5.9°C 87% 4.5 mph WNW7.2 kmh WNW 12.1 mph19.5 kmh 30.79 in1042.7 mb 0.00 in0.0 mm 0.00 in0.0 mm 0.01 in0.3 mm
04:30 AM 46.4°F8.0°C 42.7°F5.9°C 87% 5.4 mph WNW8.7 kmh WNW 12.1 mph19.5 kmh 30.80 in1043.0 mb 0.00 in0.0 mm 0.00 in0.0 mm 0.01 in0.3 mm
04:25 AM 46.4°F8.0°C 42.7°F5.9°C 87% 5.4 mph WNW8.7 kmh WNW 11.4 mph18.3 kmh 30.80 in1043.0 mb 0.00 in0.0 mm 0.00 in0.0 mm 0.01 in0.3 mm
04:20 AM 46.4°F8.0°C 42.7°F5.9°C 87% 6.9 mph WNW11.1 kmh WNW 15.9 mph25.6 kmh 30.80 in1043.0 mb 0.00 in0.0 mm 0.00 in0.0 mm 0.01 in0.3 mm
04:15 AM 46.2°F7.9°C 42.3°F5.7°C 86% 7.6 mph WNW12.2 kmh WNW 15.9 mph25.6 kmh 30.81 in1043.3 mb 0.00 in0.0 mm 0.00 in0.0 mm 0.01 in0.3 mm
04:10 AM 46.2°F7.9°C 42.3°F5.7°C 86% 6.0 mph NW9.7 kmh NW 13.6 mph21.9 kmh 30.81 in1043.3 mb 0.00 in0.0 mm 0.00 in0.0 mm 0.01 in0.3 mm
04:05 AM 46.2°F7.9°C 42.3°F5.7°C 86% 9.8 mph WNW15.8 kmh WNW 13.6 mph21.9 kmh 30.81 in1043.3 mb 0.00 in0.0 mm 0.00 in0.0 mm 0.01 in0.3 mm
04:00 AM 46.2°F7.9°C 42.3°F5.7°C 86% 9.8 mph WSW15.8 kmh WSW 13.6 mph21.9 kmh 30.81 in1043.3 mb 0.00 in0.0 mm 0.00 in0.0 mm 0.01 in0.3 mm
03:55 AM 46.2°F7.9°C 42.3°F5.7°C 86% 4.5 mph WNW7.2 kmh WNW 12.1 mph19.5 kmh 30.82 in1043.7 mb 0.00 in0.0 mm 0.00 in0.0 mm 0.01 in0.3 mm
03:50 AM 46.0°F7.8°C 42.4°F5.8°C 87% 7.6 mph W12.2 kmh W 14.5 mph23.3 kmh 30.82 in1043.7 mb 0.00 in0.0 mm 0.00 in0.0 mm 0.01 in0.3 mm
03:45 AM 46.0°F7.8°C 42.4°F5.8°C 87% 7.6 mph WSW12.2 kmh WSW 14.5 mph23.3 kmh 30.82 in1043.7 mb 0.01 in0.3 mm 0.00 in0.0 mm 0.01 in0.3 mm
03:40 AM 46.0°F7.8°C 42.4°F5.8°C 87% 6.0 mph WSW9.7 kmh WSW 13.6 mph21.9 kmh 30.82 in1043.7 mb 0.01 in0.3 mm 0.00 in0.0 mm 0.01 in0.3 mm
03:35 AM 45.9°F7.7°C 42.2°F5.7°C 87% 6.9 mph WSW11.1 kmh WSW 10.7 mph17.2 kmh 30.82 in1043.7 mb 0.01 in0.3 mm 0.00 in0.0 mm 0.01 in0.3 mm
03:30 AM 45.9°F7.7°C 42.2°F5.7°C 87% 4.5 mph W7.2 kmh W 12.1 mph19.5 kmh 30.83 in1044.0 mb 0.01 in0.3 mm 0.00 in0.0 mm 0.01 in0.3 mm
03:25 AM 45.9°F7.7°C 42.2°F5.7°C 87% 6.9 mph WSW11.1 kmh WSW 12.1 mph19.5 kmh 30.83 in1044.0 mb 0.01 in0.3 mm 0.00 in0.0 mm 0.01 in0.3 mm
03:20 AM 45.9°F7.7°C 42.2°F5.7°C 87% 6.9 mph W11.1 kmh W 11.4 mph18.3 kmh 30.83 in1044.0 mb 0.01 in0.3 mm 0.00 in0.0 mm 0.01 in0.3 mm
03:15 AM 45.7°F7.6°C 42.0°F5.6°C 87% 3.1 mph WNW5.0 kmh WNW 11.4 mph18.3 kmh 30.84 in1044.4 mb 0.01 in0.3 mm 0.00 in0.0 mm 0.01 in0.3 mm
03:10 AM 45.7°F7.6°C 42.0°F5.6°C 87% 4.5 mph W7.2 kmh W 9.8 mph15.8 kmh 30.84 in1044.4 mb 0.01 in0.3 mm 0.00 in0.0 mm 0.01 in0.3 mm
03:05 AM 45.7°F7.6°C 42.0°F5.6°C 87% 3.8 mph WSW6.1 kmh WSW 8.3 mph13.4 kmh 30.84 in1044.4 mb 0.01 in0.3 mm 0.00 in0.0 mm 0.01 in0.3 mm
03:00 AM 45.7°F7.6°C 42.0°F5.6°C 87% 4.5 mph WSW7.2 kmh WSW 8.3 mph13.4 kmh 30.84 in1044.4 mb 0.01 in0.3 mm 0.00 in0.0 mm 0.01 in0.3 mm
02:55 AM 45.7°F7.6°C 42.0°F5.6°C 87% 4.5 mph WNW7.2 kmh WNW 9.8 mph15.8 kmh 30.84 in1044.4 mb 0.01 in0.3 mm 0.00 in0.0 mm 0.01 in0.3 mm
02:50 AM 45.5°F7.5°C 41.9°F5.5°C 87% 6.9 mph W11.1 kmh W 9.8 mph15.8 kmh 30.83 in1044.0 mb 0.01 in0.3 mm 0.12 in3.0 mm 0.01 in0.3 mm
02:45 AM 45.5°F7.5°C 41.9°F5.5°C 87% 3.8 mph WSW6.1 kmh WSW 11.4 mph18.3 kmh 30.84 in1044.4 mb 0.00 in0.0 mm 0.00 in0.0 mm 0.00 in0.0 mm
02:40 AM 45.3°F7.4°C 42.0°F5.6°C 88% 3.8 mph W6.1 kmh W 11.4 mph18.3 kmh 30.84 in1044.4 mb 0.00 in0.0 mm 0.00 in0.0 mm 0.00 in0.0 mm
02:35 AM 45.1°F7.3°C 41.8°F5.4°C 88% 3.1 mph W5.0 kmh W 8.3 mph13.4 kmh 30.84 in1044.4 mb 0.00 in0.0 mm 0.00 in0.0 mm 0.00 in0.0 mm
02:30 AM 45.0°F7.2°C 41.6°F5.3°C 88% 4.5 mph W7.2 kmh W 6.9 mph11.1 kmh 30.84 in1044.4 mb 0.00 in0.0 mm 0.00 in0.0 mm 0.00 in0.0 mm
02:25 AM 45.0°F7.2°C 41.6°F5.3°C 88% 3.8 mph W6.1 kmh W 6.0 mph9.7 kmh 30.85 in1044.7 mb 0.00 in0.0 mm 0.00 in0.0 mm 0.00 in0.0 mm
02:20 AM 45.0°F7.2°C 41.6°F5.3°C 88% 1.6 mph W2.6 kmh W 6.0 mph9.7 kmh 30.84 in1044.4 mb 0.00 in0.0 mm 0.00 in0.0 mm 0.00 in0.0 mm
02:15 AM 45.0°F7.2°C 41.6°F5.3°C 88% Calm Calm 6.0 mph9.7 kmh 30.85 in1044.7 mb 0.00 in0.0 mm 0.00 in0.0 mm 0.00 in0.0 mm
02:10 AM 45.0°F7.2°C 41.6°F5.3°C 88% 3.8 mph SW6.1 kmh SW 6.0 mph9.7 kmh 30.85 in1044.7 mb 0.00 in0.0 mm 0.00 in0.0 mm 0.00 in0.0 mm
02:05 AM 44.8°F7.1°C 41.4°F5.2°C 88% 2.2 mph WSW3.5 kmh WSW 6.0 mph9.7 kmh 30.86 in1045.0 mb 0.00 in0.0 mm 0.00 in0.0 mm 0.00 in0.0 mm
02:00 AM 44.8°F7.1°C 41.4°F5.2°C 88% 2.2 mph W3.5 kmh W 7.6 mph12.2 kmh 30.86 in1045.0 mb 0.00 in0.0 mm 0.00 in0.0 mm 0.00 in0.0 mm
01:55 AM 44.6°F7.0°C 41.0°F5.0°C 87% 2.2 mph NW3.5 kmh NW 8.3 mph13.4 kmh 30.86 in1045.0 mb 0.00 in0.0 mm 0.00 in0.0 mm 0.00 in0.0 mm
01:50 AM 44.6°F7.0°C 41.0°F5.0°C 87% 4.5 mph WNW7.2 kmh WNW 8.3 mph13.4 kmh 30.86 in1045.0 mb 0.00 in0.0 mm 0.00 in0.0 mm 0.00 in0.0 mm
01:45 AM 44.6°F7.0°C 41.0°F5.0°C 87% 3.1 mph W5.0 kmh W 9.2 mph14.8 kmh 30.86 in1045.0 mb 0.00 in0.0 mm 0.00 in0.0 mm 0.00 in0.0 mm
01:40 AM 44.6°F7.0°C 40.7°F4.8°C 86% 1.6 mph W2.6 kmh W 9.2 mph14.8 kmh 30.86 in1045.0 mb 0.00 in0.0 mm 0.00 in0.0 mm 0.00 in0.0 mm
01:35 AM 44.4°F6.9°C 40.8°F4.9°C 87% 3.1 mph W5.0 kmh W 7.6 mph12.2 kmh 30.87 in1045.4 mb 0.00 in0.0 mm 0.00 in0.0 mm 0.00 in0.0 mm
01:30 AM 44.4°F6.9°C 40.8°F4.9°C 87% 3.8 mph WNW6.1 kmh WNW 7.6 mph12.2 kmh 30.87 in1045.4 mb 0.00 in0.0 mm 0.00 in0.0 mm 0.00 in0.0 mm
01:25 AM 44.4°F6.9°C 40.5°F4.7°C 86% 4.5 mph NW7.2 kmh NW 6.0 mph9.7 kmh 30.87 in1045.4 mb 0.00 in0.0 mm 0.00 in0.0 mm 0.00 in0.0 mm
01:20 AM 44.6°F7.0°C 40.4°F4.7°C 85% 3.1 mph WNW5.0 kmh WNW 8.3 mph13.4 kmh 30.87 in1045.4 mb 0.00 in0.0 mm 0.00 in0.0 mm 0.00 in0.0 mm
01:15 AM 44.8°F7.1°C 40.6°F4.8°C 85% 3.1 mph W5.0 kmh W 8.3 mph13.4 kmh 30.87 in1045.4 mb 0.00 in0.0 mm 0.00 in0.0 mm 0.00 in0.0 mm
01:10 AM 44.8°F7.1°C 40.9°F4.9°C 86% 3.1 mph W5.0 kmh W 6.9 mph11.1 kmh 30.88 in1045.7 mb 0.00 in0.0 mm 0.00 in0.0 mm 0.00 in0.0 mm
01:05 AM 45.0°F7.2°C 41.0°F5.0°C 86% 0.7 mph W1.1 kmh W 6.9 mph11.1 kmh 30.88 in1045.7 mb 0.00 in0.0 mm 0.00 in0.0 mm 0.00 in0.0 mm
01:00 AM 45.0°F7.2°C 41.0°F5.0°C 86% 1.6 mph W2.6 kmh W 5.4 mph8.7 kmh 30.88 in1045.7 mb 0.00 in0.0 mm 0.00 in0.0 mm 0.00 in0.0 mm
12:55 AM 45.0°F7.2°C 41.0°F5.0°C 86% 3.1 mph WNW5.0 kmh WNW 5.4 mph8.7 kmh 30.88 in1045.7 mb 0.00 in0.0 mm 0.00 in0.0 mm 0.09 in2.3 mm
12:50 AM 45.0°F7.2°C 41.3°F5.2°C 87% 0.7 mph W1.1 kmh W 3.8 mph6.1 kmh 30.89 in1046.1 mb 0.00 in0.0 mm 0.00 in0.0 mm 0.09 in2.3 mm
12:45 AM 45.0°F7.2°C 41.3°F5.2°C 87% 0.7 mph W1.1 kmh W 3.1 mph5.0 kmh 30.89 in1046.1 mb 0.00 in0.0 mm 0.00 in0.0 mm 0.09 in2.3 mm
12:40 AM 45.1°F7.3°C 41.5°F5.3°C 87% Calm Calm 3.8 mph6.1 kmh 30.89 in1046.1 mb 0.00 in0.0 mm 0.00 in0.0 mm 0.09 in2.3 mm
12:35 AM 45.1°F7.3°C 41.5°F5.3°C 87% 0.7 mph WSW1.1 kmh WSW 3.8 mph6.1 kmh 30.90 in1046.4 mb 0.00 in0.0 mm 0.00 in0.0 mm 0.09 in2.3 mm
12:30 AM 45.1°F7.3°C 41.5°F5.3°C 87% 1.6 mph SW2.6 kmh SW 6.0 mph9.7 kmh 30.89 in1046.1 mb 0.00 in0.0 mm 0.00 in0.0 mm 0.09 in2.3 mm
12:25 AM 45.1°F7.3°C 41.8°F5.4°C 88% Calm Calm 8.3 mph13.4 kmh 30.89 in1046.1 mb 0.00 in0.0 mm 0.00 in0.0 mm 0.09 in2.3 mm
12:20 AM 45.0°F7.2°C 41.6°F5.3°C 88% 0.7 mph SW1.1 kmh SW 8.3 mph13.4 kmh 30.90 in1046.4 mb 0.00 in0.0 mm 0.00 in0.0 mm 0.09 in2.3 mm
12:15 AM 44.8°F7.1°C 41.4°F5.2°C 88% 2.2 mph SW3.5 kmh SW 6.0 mph9.7 kmh 30.91 in1046.7 mb 0.00 in0.0 mm 0.00 in0.0 mm 0.09 in2.3 mm
12:10 AM 44.6°F7.0°C 41.3°F5.2°C 88% 3.8 mph WSW6.1 kmh WSW 6.0 mph9.7 kmh 30.90 in1046.4 mb 0.00 in0.0 mm 0.00 in0.0 mm 0.09 in2.3 mm
12:05 AM 44.6°F7.0°C 41.3°F5.2°C 88% 0.7 mph W1.1 kmh W 4.5 mph7.2 kmh 30.90 in1046.4 mb 0.00 in0.0 mm 0.00 in0.0 mm 0.09 in2.3 mm
12:00 AM 44.6°F7.0°C 41.3°F5.2°C 88% 0.7 mph W1.1 kmh W 4.5 mph7.2 kmh 30.90 in1046.4 mb 0.00 in0.0 mm 0.00 in0.0 mm 0.09 in2.3 mm